Time;durP1;ratioP1;P1;durP2;ratioP2;P2;SDS_P1;SDS_P2;PMS_P1;PMS_P2;Temp;Humidity;BMP_temperature;BMP_pressure;BME280_temperature;BME280_humidity;BME280_pressure;Samples;Min_cycle;Max_cycle;Signal;HPM_P1;HPM_P2
2022/09/26 00:00:47;;;;;;;2.78;1.60;;;11.50;99.90;;;;;;5093222;28;20028;-68
2022/09/26 00:03:12;;;;;;;2.60;1.52;;;11.40;99.90;;;;;;5093058;28;20038;-68
2022/09/26 00:05:38;;;;;;;3.88;1.90;;;11.40;99.90;;;;;;5093144;28;20103;-68
2022/09/26 00:08:05;;;;;;;2.13;1.50;;;11.30;99.90;;;;;;5093376;28;20471;-68
2022/09/26 00:10:31;;;;;;;2.67;1.67;;;11.30;99.90;;;;;;5093442;28;20491;-68
2022/09/26 00:12:57;;;;;;;2.50;1.52;;;11.30;99.90;;;;;;5092882;28;20061;-68
2022/09/26 00:15:23;;;;;;;3.17;1.83;;;11.30;99.90;;;;;;5074837;28;20024;-68
2022/09/26 00:17:49;;;;;;;2.70;1.85;;;11.20;99.90;;;;;;5093008;28;20020;-68
2022/09/26 00:20:15;;;;;;;2.72;1.80;;;11.30;99.90;;;;;;5092885;28;20032;-68
2022/09/26 00:22:40;;;;;;;2.38;1.45;;;11.20;99.90;;;;;;5093156;28;20028;-68
2022/09/26 00:25:07;;;;;;;2.67;1.83;;;11.20;99.90;;;;;;5092758;28;20099;-68
2022/09/26 00:27:32;;;;;;;2.47;1.58;;;11.20;99.90;;;;;;5092941;28;20073;-68
2022/09/26 00:29:58;;;;;;;2.35;1.40;;;11.10;99.90;;;;;;5092929;28;20032;-68
2022/09/26 00:32:23;;;;;;;2.75;1.80;;;11.10;99.90;;;;;;5093143;28;20020;-68
2022/09/26 00:34:49;;;;;;;2.47;1.60;;;11.00;99.90;;;;;;5093060;28;20032;-68
2022/09/26 00:37:15;;;;;;;3.25;2.15;;;11.00;99.90;;;;;;5092825;28;20052;-68
2022/09/26 00:39:41;;;;;;;3.20;1.88;;;11.00;99.90;;;;;;5092500;28;20032;-68
2022/09/26 00:42:12;;;;;;;2.67;1.80;;;10.90;99.90;;;;;;5092783;28;20024;-68
2022/09/26 00:44:48;;;;;;;2.70;1.55;;;10.80;99.90;;;;;;5093065;28;20016;-68
2022/09/26 00:47:41;;;;;;;5.20;1.80;;;10.80;99.90;;;;;;5074627;28;20112;-68
2022/09/26 00:50:19;;;;;;;3.47;1.73;;;10.80;99.90;;;;;;5092718;28;20051;-68
2022/09/26 00:52:51;;;;;;;4.03;1.50;;;10.70;99.90;;;;;;5096890;28;20020;-68
2022/09/26 00:55:20;;;;;;;3.75;1.60;;;10.80;99.90;;;;;;5096213;28;20032;-68
2022/09/26 00:57:57;;;;;;;2.58;1.52;;;10.80;99.90;;;;;;5096851;28;20023;-68
2022/09/26 01:00:23;;;;;;;3.70;1.85;;;10.80;99.90;;;;;;5096738;28;20028;-68
2022/09/26 01:02:51;;;;;;;2.28;1.63;;;10.70;99.90;;;;;;5096196;28;20024;-68
2022/09/26 01:05:20;;;;;;;3.42;1.70;;;10.70;99.90;;;;;;5096479;28;20073;-68
2022/09/26 01:07:47;;;;;;;3.35;1.52;;;10.70;99.90;;;;;;5096172;28;20452;-68
2022/09/26 01:10:14;;;;;;;2.92;2.00;;;10.70;99.90;;;;;;5095886;28;20024;-68
2022/09/26 01:12:41;;;;;;;2.53;1.40;;;10.70;99.90;;;;;;5096231;28;20074;-68
2022/09/26 01:15:07;;;;;;;2.33;1.50;;;10.70;99.90;;;;;;5096014;28;20055;-68
2022/09/26 01:17:35;;;;;;;2.53;1.25;;;10.70;99.90;;;;;;5095964;28;20126;-68
2022/09/26 01:20:19;;;;;;;3.22;1.40;;;10.80;99.90;;;;;;5095783;28;20063;-68
2022/09/26 01:23:07;;;;;;;3.38;1.20;;;10.80;99.90;;;;;;5096069;28;20016;-68
2022/09/26 01:25:54;;;;;;;3.55;1.70;;;10.80;99.90;;;;;;5095829;28;20016;-68
2022/09/26 01:28:47;;;;;;;2.50;1.40;;;10.70;99.90;;;;;;5095732;28;20024;-68
2022/09/26 01:31:23;;;;;;;2.20;1.42;;;10.70;99.90;;;;;;5096010;28;20040;-68
2022/09/26 01:33:55;;;;;;;5.30;1.80;;;10.70;99.90;;;;;;5095594;28;20020;-68
2022/09/26 01:36:52;;;;;;;3.05;1.70;;;10.70;99.90;;;;;;5095906;28;20475;-68
2022/09/26 01:39:43;;;;;;;3.30;1.80;;;10.70;99.90;;;;;;5095401;28;20024;-68
2022/09/26 01:42:36;;;;;;;3.90;2.00;;;10.60;99.90;;;;;;5096076;28;20020;-69
2022/09/26 01:45:18;;;;;;;2.55;1.40;;;10.60;99.90;;;;;;5095353;28;20035;-69
2022/09/26 01:47:54;;;;;;;3.05;1.40;;;10.60;99.90;;;;;;5095711;28;20027;-68
2022/09/26 01:50:42;;;;;;;2.47;1.58;;;10.50;99.90;;;;;;5095589;28;20020;-68
2022/09/26 01:53:43;;;;;;;2.63;1.30;;;10.50;99.90;;;;;;5095491;28;20028;-69
2022/09/26 01:56:17;;;;;;;2.08;1.35;;;10.60;99.90;;;;;;5093946;28;20123;-68
2022/09/26 01:58:57;;;;;;;2.50;1.40;;;10.60;99.90;;;;;;5095387;28;20107;-68
2022/09/26 02:01:26;;;;;;;2.20;1.33;;;10.60;99.90;;;;;;5095133;28;20463;-68
2022/09/26 02:03:57;;;;;;;2.22;1.40;;;10.60;99.90;;;;;;5094176;28;20039;-68
2022/09/26 02:06:41;;;;;;;3.13;1.70;;;10.60;99.90;;;;;;5095580;28;20455;-68
2022/09/26 02:09:18;;;;;;;2.13;1.17;;;10.60;99.90;;;;;;5094930;28;20027;-68
2022/09/26 02:11:48;;;;;;;1.85;1.23;;;10.60;99.90;;;;;;5095199;28;20084;-67
2022/09/26 02:14:28;;;;;;;2.38;1.20;;;10.50;99.90;;;;;;5094683;28;20135;-68
2022/09/26 02:17:04;;;;;;;1.60;1.00;;;10.40;99.90;;;;;;5095081;28;20043;-68
2022/09/26 02:19:42;;;;;;;2.08;1.10;;;10.40;99.90;;;;;;5094958;28;20048;-68
2022/09/26 02:22:07;;;;;;;3.85;1.25;;;10.30;99.90;;;;;;5076618;28;20046;-68
2022/09/26 02:24:33;;;;;;;1.80;1.02;;;10.30;99.90;;;;;;5094349;28;20024;-66
2022/09/26 02:26:59;;;;;;;2.28;1.05;;;10.20;99.90;;;;;;5094888;28;20398;-67
2022/09/26 02:29:25;;;;;;;2.28;1.15;;;10.20;99.90;;;;;;5095117;28;20383;-67
2022/09/26 02:31:56;;;;;;;3.20;1.17;;;10.20;99.90;;;;;;5094777;28;20028;-68
2022/09/26 02:34:23;;;;;;;2.13;0.90;;;10.20;99.90;;;;;;5094699;28;20035;-68
2022/09/26 02:36:48;;;;;;;2.08;0.80;;;10.10;99.90;;;;;;5094405;28;20056;-67
2022/09/26 02:39:14;;;;;;;2.03;1.00;;;10.10;99.90;;;;;;5094377;28;20124;-68
2022/09/26 02:41:54;;;;;;;1.55;0.88;;;10.00;99.90;;;;;;5094318;28;20038;-68
2022/09/26 02:44:56;;;;;;;2.50;1.00;;;10.00;99.90;;;;;;5094295;28;20027;-68
2022/09/26 02:47:59;;;;;;;2.33;0.80;;;10.00;99.90;;;;;;5094475;28;20046;-68
2022/09/26 02:50:37;;;;;;;2.08;1.05;;;10.00;99.90;;;;;;5094071;28;20031;-68
2022/09/26 02:53:21;;;;;;;1.35;0.80;;;10.00;99.90;;;;;;5094070;28;20047;-68
2022/09/26 02:56:25;;;;;;;1.65;1.00;;;10.10;99.90;;;;;;5094125;28;20031;-68
2022/09/26 02:58:53;;;;;;;2.15;0.90;;;10.10;99.90;;;;;;5093902;28;20477;-68
2022/09/26 03:01:41;;;;;;;1.48;0.80;;;10.20;99.90;;;;;;5094257;28;20070;-68
2022/09/26 03:04:35;;;;;;;2.38;1.38;;;10.20;99.90;;;;;;5094030;28;20134;-68
2022/09/26 03:07:06;;;;;;;6.97;3.45;;;10.30;99.90;;;;;;5094184;28;20419;-68
2022/09/26 03:09:32;;;;;;;3.70;2.10;;;10.30;99.90;;;;;;5093798;28;20032;-68
2022/09/26 03:12:01;;;;;;;2.58;1.52;;;10.30;99.90;;;;;;5094033;28;20051;-68
2022/09/26 03:14:30;;;;;;;2.65;1.40;;;10.30;99.90;;;;;;5093525;28;20043;-68
2022/09/26 03:16:56;;;;;;;2.80;1.48;;;10.30;99.90;;;;;;5093700;28;20035;-68
2022/09/26 03:19:29;;;;;;;2.40;1.52;;;10.30;99.90;;;;;;5093476;28;20043;-68
2022/09/26 03:21:56;;;;;;;3.05;1.73;;;10.30;99.90;;;;;;5093885;28;20423;-68
2022/09/26 03:24:23;;;;;;;2.72;1.85;;;10.30;99.90;;;;;;5093344;28;20020;-68
2022/09/26 03:26:49;;;;;;;3.10;1.90;;;10.30;99.90;;;;;;5094068;28;20027;-68
2022/09/26 03:29:16;;;;;;;2.58;1.63;;;10.30;99.90;;;;;;5093691;28;20538;-68
2022/09/26 03:31:43;;;;;;;2.90;1.80;;;10.30;99.90;;;;;;5093770;28;20575;-68
2022/09/26 03:34:09;;;;;;;2.47;1.33;;;10.30;99.90;;;;;;5093396;28;20024;-68
2022/09/26 03:36:35;;;;;;;2.00;1.10;;;10.30;99.90;;;;;;5093365;28;20414;-68
2022/09/26 03:39:01;;;;;;;2.63;1.10;;;10.30;99.90;;;;;;5093077;28;20040;-68
2022/09/26 03:41:26;;;;;;;2.22;1.00;;;10.30;99.90;;;;;;5093336;28;20035;-68
2022/09/26 03:43:52;;;;;;;2.42;1.00;;;10.30;99.90;;;;;;5093173;28;20036;-68
2022/09/26 03:46:18;;;;;;;1.77;1.00;;;10.30;99.90;;;;;;5093353;28;20016;-68
2022/09/26 03:48:43;;;;;;;2.30;0.95;;;10.30;99.90;;;;;;5093289;28;20028;-70
2022/09/26 03:51:12;;;;;;;1.52;0.80;;;10.30;99.90;;;;;;5093314;28;20111;-70
2022/09/26 03:53:40;;;;;;;1.80;1.00;;;10.30;99.90;;;;;;5092928;28;20021;-69
2022/09/26 03:56:10;;;;;;;1.55;1.00;;;10.30;99.90;;;;;;5093228;28;20069;-71
2022/09/26 03:58:37;;;;;;;1.80;1.10;;;10.30;99.90;;;;;;5093677;28;20028;-70
2022/09/26 04:01:07;;;;;;;2.03;1.20;;;10.30;99.90;;;;;;5093158;28;20102;-70
2022/09/26 04:03:38;;;;;;;2.63;1.17;;;10.30;99.90;;;;;;5093293;28;20074;-70
2022/09/26 04:06:05;;;;;;;2.08;1.27;;;10.30;99.90;;;;;;5093185;28;20032;-70
2022/09/26 04:08:30;;;;;;;2.13;1.30;;;10.30;99.90;;;;;;5093098;28;20048;-71
2022/09/26 04:11:01;;;;;;;2.58;1.70;;;10.30;99.90;;;;;;5092840;28;20063;-70
2022/09/26 04:13:27;;;;;;;2.95;1.70;;;10.40;99.90;;;;;;5093615;28;20032;-68
2022/09/26 04:15:57;;;;;;;2.80;1.70;;;10.40;99.90;;;;;;5093023;28;20039;-68
2022/09/26 04:18:23;;;;;;;3.37;2.00;;;10.40;99.90;;;;;;5093473;28;20104;-68
2022/09/26 04:20:49;;;;;;;2.60;1.70;;;10.50;99.90;;;;;;5092946;28;20027;-68
2022/09/26 04:23:15;;;;;;;2.40;1.50;;;10.50;99.90;;;;;;5092938;28;20020;-68
2022/09/26 04:25:41;;;;;;;2.38;1.30;;;10.50;99.90;;;;;;5094129;28;20093;-68
2022/09/26 04:28:07;;;;;;;2.42;1.20;;;10.50;99.90;;;;;;5097161;28;20471;-68
2022/09/26 04:30:32;;;;;;;1.25;0.90;;;10.50;99.90;;;;;;5097115;28;20055;-68
2022/09/26 04:32:58;;;;;;;2.05;1.20;;;10.50;99.90;;;;;;5096838;28;20476;-68
2022/09/26 04:35:24;;;;;;;22.10;7.38;;;10.50;99.90;;;;;;5096991;28;20040;-68
2022/09/26 04:37:50;;;;;;;35.00;12.38;;;10.50;99.90;;;;;;5097010;28;20031;-69
2022/09/26 04:40:16;;;;;;;29.98;11.85;;;10.50;99.90;;;;;;5096366;28;20085;-68
2022/09/26 04:42:41;;;;;;;43.35;17.00;;;10.40;99.90;;;;;;5078293;28;20576;-68
2022/09/26 04:45:07;;;;;;;62.60;22.27;;;10.40;99.90;;;;;;5078377;28;20085;-68
2022/09/26 04:47:33;;;;;;;50.47;17.95;;;10.50;99.90;;;;;;5096781;28;20190;-68
2022/09/26 04:49:59;;;;;;;26.83;10.73;;;10.50;99.90;;;;;;5096751;28;20455;-67
2022/09/26 04:52:25;;;;;;;13.52;6.57;;;10.50;99.90;;;;;;5096681;28;20032;-66
2022/09/26 04:54:51;;;;;;;7.13;4.10;;;10.50;99.90;;;;;;5078304;28;20034;-66
2022/09/26 04:57:17;;;;;;;4.03;2.33;;;10.60;99.90;;;;;;5096879;28;20118;-66
2022/09/26 04:59:42;;;;;;;3.60;2.03;;;10.50;99.90;;;;;;5096479;28;20028;-66
2022/09/26 05:02:08;;;;;;;3.55;2.15;;;10.50;99.90;;;;;;5078072;28;20107;-66
2022/09/26 05:04:34;;;;;;;5.88;3.70;;;10.50;99.90;;;;;;5096154;28;20147;-66
2022/09/26 05:07:00;;;;;;;4.35;3.42;;;10.50;99.90;;;;;;5096427;28;20089;-66
2022/09/26 05:09:26;;;;;;;3.85;3.10;;;10.50;99.90;;;;;;5095910;28;20033;-66
2022/09/26 05:11:52;;;;;;;3.28;2.45;;;10.50;99.90;;;;;;5096081;28;20432;-66
2022/09/26 05:14:18;;;;;;;3.00;1.98;;;10.50;99.90;;;;;;5095801;28;20040;-66
2022/09/26 05:16:44;;;;;;;3.50;1.52;;;10.50;99.90;;;;;;5096260;28;20036;-66
2022/09/26 05:19:09;;;;;;;3.65;2.20;;;10.50;99.90;;;;;;5095868;28;20035;-66
2022/09/26 05:21:35;;;;;;;3.53;2.08;;;10.50;99.90;;;;;;5095827;28;20471;-66
2022/09/26 05:26:48;;;;;;;3.25;2.38;;;10.50;99.90;;;;;;5096088;28;20149;-66
2022/09/26 05:29:15;;;;;;;3.67;2.33;;;10.50;99.90;;;;;;5095745;28;20111;-67
2022/09/26 05:31:42;;;;;;;5.35;1.88;;;10.40;99.90;;;;;;5095944;28;20433;-67
2022/09/26 05:34:10;;;;;;;3.20;1.90;;;10.40;99.90;;;;;;5095599;28;20024;-66
2022/09/26 05:36:36;;;;;;;2.95;2.00;;;10.40;99.90;;;;;;5095141;28;20016;-67
2022/09/26 05:39:03;;;;;;;3.22;2.15;;;10.40;99.90;;;;;;5094457;28;20464;-67
2022/09/26 05:41:31;;;;;;;3.88;2.13;;;10.40;99.90;;;;;;5095504;28;20043;-67
2022/09/26 05:43:57;;;;;;;3.63;2.25;;;10.40;99.90;;;;;;5095338;28;20069;-66
2022/09/26 05:46:23;;;;;;;4.35;2.70;;;10.40;99.90;;;;;;5095898;28;20024;-66
2022/09/26 05:48:49;;;;;;;4.85;2.53;;;10.40;99.90;;;;;;5077231;28;20445;-66
2022/09/26 05:51:17;;;;;;;2.85;2.00;;;10.40;99.90;;;;;;5095267;28;20048;-67
2022/09/26 05:53:45;;;;;;;4.97;2.53;;;10.40;99.90;;;;;;5095200;28;20019;-66
2022/09/26 05:56:12;;;;;;;4.45;3.28;;;10.30;99.90;;;;;;5095036;28;20467;-66
2022/09/26 05:58:39;;;;;;;3.53;2.10;;;10.30;99.90;;;;;;5095409;28;20034;-66
2022/09/26 06:01:05;;;;;;;4.35;3.03;;;10.30;99.90;;;;;;5095110;28;20024;-66
2022/09/26 06:03:34;;;;;;;5.70;2.97;;;10.30;99.90;;;;;;5095169;28;20069;-66
2022/09/26 06:06:07;;;;;;;5.72;3.30;;;10.30;99.90;;;;;;5095602;28;20031;-66
2022/09/26 06:08:35;;;;;;;3.85;1.98;;;10.20;99.90;;;;;;5095287;28;20122;-67
2022/09/26 06:11:09;;;;;;;4.72;2.65;;;10.30;99.90;;;;;;5094754;28;20053;-67
2022/09/26 06:13:35;;;;;;;6.10;3.17;;;10.30;99.90;;;;;;5095505;28;20422;-67
2022/09/26 06:16:06;;;;;;;5.25;3.40;;;10.30;99.90;;;;;;5094846;28;20415;-67
2022/09/26 06:18:37;;;;;;;5.55;3.70;;;10.30;99.90;;;;;;5094759;28;20020;-67
2022/09/26 06:21:08;;;;;;;4.83;3.30;;;10.30;99.90;;;;;;5094854;28;20165;-67
2022/09/26 06:23:34;;;;;;;6.07;3.60;;;10.30;99.90;;;;;;5094899;28;20020;-67
2022/09/26 06:26:02;;;;;;;5.53;3.20;;;10.30;99.90;;;;;;5094329;28;20024;-67
2022/09/26 06:28:28;;;;;;;7.10;4.10;;;10.30;99.90;;;;;;5094563;28;20501;-67
2022/09/26 06:30:54;;;;;;;6.78;4.32;;;10.40;99.90;;;;;;5095030;28;20028;-67
2022/09/26 06:33:21;;;;;;;6.10;3.55;;;10.40;99.90;;;;;;5094449;28;20020;-67
2022/09/26 06:35:46;;;;;;;6.35;3.47;;;10.40;99.90;;;;;;5094927;28;20058;-67
2022/09/26 06:38:12;;;;;;;6.47;4.30;;;10.40;99.90;;;;;;5094362;28;20028;-67
2022/09/26 06:40:38;;;;;;;7.40;4.68;;;10.50;99.90;;;;;;5094228;28;20399;-67
2022/09/26 06:43:04;;;;;;;10.25;6.00;;;10.40;99.90;;;;;;5094246;28;20024;-67
2022/09/26 06:45:30;;;;;;;7.28;4.40;;;10.40;99.90;;;;;;5094255;28;20103;-67
2022/09/26 06:48:00;;;;;;;18.92;6.28;;;10.40;99.90;;;;;;5076106;28;20539;-66
2022/09/26 06:50:26;;;;;;;16.13;6.03;;;10.40;99.90;;;;;;5094168;28;20066;-67
2022/09/26 06:52:52;;;;;;;14.98;5.95;;;10.30;99.90;;;;;;5093984;28;20262;-67
2022/09/26 06:55:17;;;;;;;14.70;5.45;;;10.40;99.90;;;;;;5093859;28;20024;-67
2022/09/26 06:57:43;;;;;;;11.27;5.13;;;10.30;99.90;;;;;;5094032;28;20490;-67
2022/09/26 07:00:12;;;;;;;8.95;4.13;;;10.30;99.90;;;;;;5094131;28;20032;-66
2022/09/26 07:02:38;;;;;;;6.93;3.70;;;10.30;99.90;;;;;;5093859;28;20467;-67
2022/09/26 07:05:04;;;;;;;6.63;3.38;;;10.40;99.90;;;;;;5093814;28;20161;-66
2022/09/26 07:07:31;;;;;;;5.00;3.08;;;10.40;99.90;;;;;;5094071;28;20059;-66
2022/09/26 07:09:57;;;;;;;4.18;2.60;;;10.40;99.90;;;;;;5093778;28;20027;-66
2022/09/26 07:12:23;;;;;;;4.80;2.53;;;10.40;99.90;;;;;;5093706;28;20028;-67
2022/09/26 07:14:50;;;;;;;4.65;2.53;;;10.50;99.90;;;;;;5093604;28;20028;-66
2022/09/26 07:17:16;;;;;;;4.88;3.05;;;10.50;99.90;;;;;;5093708;28;20028;-66
2022/09/26 07:19:43;;;;;;;4.25;2.70;;;10.50;99.90;;;;;;5094040;28;20032;-66
2022/09/26 07:22:09;;;;;;;6.00;3.22;;;10.60;99.90;;;;;;5093655;28;20031;-66
2022/09/26 07:24:35;;;;;;;4.57;3.17;;;10.60;99.90;;;;;;5093297;28;20024;-66
2022/09/26 07:27:01;;;;;;;4.68;3.13;;;10.60;99.90;;;;;;5093454;28;20103;-66
2022/09/26 07:29:28;;;;;;;4.40;3.28;;;10.60;99.90;;;;;;5093508;28;20056;-66
2022/09/26 07:31:54;;;;;;;4.45;3.00;;;10.60;99.90;;;;;;5093466;28;20527;-66
2022/09/26 07:34:23;;;;;;;7.50;3.10;;;10.70;99.90;;;;;;5093548;28;20039;-66
2022/09/26 07:36:50;;;;;;;4.45;3.13;;;10.70;99.90;;;;;;5093738;28;20476;-66
2022/09/26 07:39:16;;;;;;;3.78;2.60;;;10.80;99.90;;;;;;5093133;28;20073;-67
2022/09/26 07:41:44;;;;;;;3.97;2.40;;;10.80;99.90;;;;;;5075314;28;20032;-66
2022/09/26 07:44:09;;;;;;;4.40;2.80;;;10.80;99.90;;;;;;5093357;28;20020;-66
2022/09/26 07:52:03;;;;;;;4.50;3.13;;;10.90;99.90;;;;;;5093813;28;20034;-66
2022/09/26 07:54:29;;;;;;;4.82;2.63;;;11.00;99.90;;;;;;5093498;28;20438;-67
2022/09/26 07:56:55;;;;;;;6.03;2.85;;;11.00;99.90;;;;;;5093442;28;20361;-66
2022/09/26 07:59:21;;;;;;;3.95;2.60;;;11.10;99.90;;;;;;5093117;28;20066;-66
2022/09/26 08:01:47;;;;;;;5.55;4.07;;;11.10;99.90;;;;;;5096209;28;20035;-66
2022/09/26 08:04:14;;;;;;;4.55;3.33;;;11.10;99.90;;;;;;5079169;28;20032;-66
2022/09/26 08:06:40;;;;;;;4.30;3.47;;;11.10;99.90;;;;;;5079183;28;20032;-66
2022/09/26 08:09:06;;;;;;;4.63;3.28;;;11.10;99.90;;;;;;5079100;28;20031;-66
2022/09/26 08:11:33;;;;;;;3.55;2.45;;;11.10;99.90;;;;;;5097017;28;20503;-66
2022/09/26 08:14:00;;;;;;;3.88;2.72;;;11.10;99.90;;;;;;5097244;28;20036;-66
2022/09/26 08:16:25;;;;;;;3.80;2.70;;;11.20;99.90;;;;;;5097201;28;20031;-67
2022/09/26 08:18:52;;;;;;;3.80;2.50;;;11.20;99.90;;;;;;5096935;28;20032;-66
2022/09/26 08:21:19;;;;;;;4.30;2.50;;;11.30;99.90;;;;;;5097324;28;20027;-67
2022/09/26 08:23:48;;;;;;;4.65;3.45;;;11.30;99.90;;;;;;5097067;28;20032;-66
2022/09/26 08:26:14;;;;;;;7.88;4.70;;;11.40;99.90;;;;;;5096713;28;20472;-67
2022/09/26 08:28:41;;;;;;;7.93;5.10;;;11.40;99.90;;;;;;5097493;28;20031;-66
2022/09/26 08:31:07;;;;;;;7.13;3.85;;;11.40;99.90;;;;;;5097112;28;20024;-66
2022/09/26 08:33:34;;;;;;;4.50;2.92;;;11.40;99.90;;;;;;5097056;28;20490;-66
2022/09/26 08:36:09;;;;;;;4.60;3.28;;;11.50;99.90;;;;;;5097381;28;20106;-66
2022/09/26 08:38:35;;;;;;;4.38;3.17;;;11.60;99.90;;;;;;5096630;28;20020;-66
2022/09/26 08:41:13;;;;;;;6.90;3.20;;;11.70;99.90;;;;;;5096826;28;20468;-66
2022/09/26 08:44:27;;;;;;;5.50;3.33;;;11.70;99.90;;;;;;5096513;28;20027;-66
2022/09/26 08:47:28;;;;;;;4.05;3.10;;;11.80;99.90;;;;;;5096448;28;20048;-66
2022/09/26 08:50:24;;;;;;;3.20;2.40;;;11.80;99.90;;;;;;5095138;28;20035;-67
2022/09/26 08:52:59;;;;;;;6.35;3.15;;;11.90;99.90;;;;;;5096414;28;20051;-67
2022/09/26 08:55:30;;;;;;;4.18;2.60;;;11.90;99.90;;;;;;5096223;28;20058;-66
2022/09/26 08:58:00;;;;;;;3.78;1.92;;;12.00;99.90;;;;;;5096395;28;20112;-66
2022/09/26 09:00:30;;;;;;;5.33;3.27;;;12.00;99.90;;;;;;5096565;28;20074;-67
2022/09/26 09:03:19;;;;;;;3.58;2.40;;;12.10;99.90;;;;;;5096434;28;20024;-66
2022/09/26 09:05:50;;;;;;;4.72;2.60;;;12.10;99.90;;;;;;5085310;28;20032;-66
2022/09/26 09:08:29;;;;;;;3.63;2.40;;;12.20;99.90;;;;;;5096480;28;20460;-66
2022/09/26 09:11:28;;;;;;;3.72;2.42;;;12.30;99.90;;;;;;5095994;28;20508;-66
2022/09/26 09:14:03;;;;;;;3.28;2.05;;;12.40;99.90;;;;;;5095925;28;20039;-66
2022/09/26 09:16:50;;;;;;;4.25;2.20;;;12.60;99.90;;;;;;5096020;28;20028;-66
2022/09/26 09:19:40;;;;;;;2.83;2.00;;;12.80;99.90;;;;;;5095911;28;20027;-66
2022/09/26 09:22:08;;;;;;;2.95;1.90;;;13.00;99.90;;;;;;5095866;28;20099;-66
2022/09/26 09:24:46;;;;;;;2.60;1.40;;;13.00;99.90;;;;;;5095532;28;20113;-67
2022/09/26 09:27:59;;;;;;;2.40;1.33;;;13.10;99.90;;;;;;5095844;28;20020;-66
2022/09/26 09:30:32;;;;;;;1.83;0.98;;;13.00;99.90;;;;;;5086487;28;20039;-66
2022/09/26 09:33:03;;;;;;;1.67;0.88;;;13.00;99.90;;;;;;5095962;28;20031;-66
2022/09/26 09:35:46;;;;;;;1.55;0.90;;;13.10;99.90;;;;;;5096051;28;20153;-65
2022/09/26 09:38:21;;;;;;;3.33;2.30;;;13.30;99.90;;;;;;5096174;28;20035;-66
2022/09/26 09:40:47;;;;;;;2.50;1.40;;;13.40;99.90;;;;;;5095243;28;20488;-66
2022/09/26 09:43:25;;;;;;;2.33;1.10;;;13.50;99.90;;;;;;5095728;28;20032;-66
2022/09/26 09:45:56;;;;;;;4.00;1.90;;;13.60;99.90;;;;;;5095780;28;20031;-66
2022/09/26 09:48:26;;;;;;;2.90;1.10;;;13.50;99.90;;;;;;5095477;28;20026;-66
2022/09/26 09:51:16;;;;;;;3.85;2.33;;;13.50;99.90;;;;;;5095983;28;20040;-67
2022/09/26 09:53:57;;;;;;;1.98;1.17;;;13.50;99.90;;;;;;5095431;28;20024;-66
2022/09/26 09:56:44;;;;;;;;;;;13.50;99.90;;;;;;5095715;28;20387;-66
2022/09/26 09:59:28;;;;;;;1.77;1.00;;;13.60;99.90;;;;;;5095164;28;19908;-66
2022/09/26 10:02:10;;;;;;;3.45;1.10;;;13.80;99.90;;;;;;5095190;28;20484;-66
2022/09/26 10:04:45;;;;;;;1.65;0.90;;;14.00;99.90;;;;;;5095265;28;20030;-66
2022/09/26 10:07:11;;;;;;;1.98;0.88;;;14.20;99.90;;;;;;5095117;28;20024;-66
2022/09/26 10:09:39;;;;;;;1.58;0.80;;;14.40;99.90;;;;;;5095541;28;20020;-66
2022/09/26 10:12:15;;;;;;;2.40;1.05;;;14.60;99.90;;;;;;5095259;28;20031;-66
2022/09/26 10:14:53;;;;;;;1.77;0.98;;;14.70;99.90;;;;;;5095364;28;20450;-66
2022/09/26 10:17:20;;;;;;;3.38;0.90;;;14.60;99.90;;;;;;5095117;28;20016;-66
2022/09/26 10:19:46;;;;;;;1.55;1.00;;;14.50;99.90;;;;;;5076461;28;20399;-67
2022/09/26 10:22:32;;;;;;;1.90;1.20;;;14.40;99.90;;;;;;5076594;28;20488;-66
2022/09/26 10:25:19;;;;;;;8.75;6.03;;;14.50;99.90;;;;;;5093974;28;20094;-67
2022/09/26 10:28:04;;;;;;;1.52;0.80;;;14.70;99.90;;;;;;5094511;28;20040;-66
2022/09/26 10:30:45;;;;;;;2.97;1.10;;;15.00;99.90;;;;;;5094871;28;20044;-66
2022/09/26 10:33:24;;;;;;;1.98;1.13;;;15.00;99.90;;;;;;5094806;28;20471;-66
2022/09/26 10:35:52;;;;;;;2.28;1.30;;;15.00;99.90;;;;;;5094736;28;20042;-67
2022/09/26 10:38:27;;;;;;;2.40;1.30;;;15.00;99.90;;;;;;5077237;28;20036;-67
2022/09/26 10:41:00;;;;;;;3.85;0.88;;;15.20;99.90;;;;;;5094207;28;20396;-67
2022/09/26 10:43:34;;;;;;;1.75;0.95;;;15.30;99.90;;;;;;5094222;28;20020;-67
2022/09/26 10:46:15;;;;;;;2.33;1.20;;;15.30;99.90;;;;;;5094279;28;20028;-67
2022/09/26 10:48:56;;;;;;;2.85;0.90;;;15.30;99.90;;;;;;5094312;28;20047;-67
2022/09/26 10:51:28;;;;;;;1.20;0.80;;;15.20;99.90;;;;;;5094194;28;20093;-67
2022/09/26 10:54:17;;;;;;;4.20;1.73;;;15.10;99.90;;;;;;5094024;28;20087;-67
2022/09/26 10:56:46;;;;;;;1.63;1.05;;;15.10;99.90;;;;;;5093958;28;20038;-67
2022/09/26 10:59:16;;;;;;;1.83;0.70;;;15.10;99.90;;;;;;5094265;28;20028;-67
2022/09/26 11:01:49;;;;;;;1.35;0.73;;;15.10;99.90;;;;;;5094003;28;20472;-68
2022/09/26 11:07:09;;;;;;;2.15;1.00;;;15.00;99.90;;;;;;5094428;28;20557;-68
2022/09/26 11:09:37;;;;;;;3.67;0.80;;;15.10;99.90;;;;;;5093856;28;20024;-68
2022/09/26 11:12:26;;;;;;;1.85;1.00;;;15.10;99.90;;;;;;5093536;28;20032;-68
2022/09/26 11:15:05;;;;;;;1.50;0.80;;;15.10;99.90;;;;;;5093691;28;20028;-68
2022/09/26 11:17:46;;;;;;;1.75;0.80;;;15.20;99.90;;;;;;5093801;28;20483;-68
2022/09/26 11:20:37;;;;;;;1.67;0.90;;;15.20;99.90;;;;;;5093619;28;20124;-68
2022/09/26 11:23:23;;;;;;;2.83;1.33;;;15.20;99.90;;;;;;5093899;28;20017;-68
2022/09/26 11:26:17;;;;;;;1.95;1.00;;;15.20;99.90;;;;;;5093592;28;20031;-68
2022/09/26 11:28:51;;;;;;;1.45;0.75;;;15.20;99.90;;;;;;5088628;28;20078;-68
2022/09/26 11:31:25;;;;;;;1.67;0.80;;;15.20;99.90;;;;;;5093792;28;20016;-68
2022/09/26 11:33:52;;;;;;;1.30;0.90;;;15.20;99.90;;;;;;5093432;28;20039;-68
2022/09/26 11:36:38;;;;;;;2.05;1.23;;;15.20;99.90;;;;;;5093678;28;20044;-68
2022/09/26 11:39:43;;;;;;;1.52;0.88;;;15.20;99.90;;;;;;5093632;28;20383;-68
2022/09/26 11:42:26;;;;;;;1.55;0.90;;;15.30;99.90;;;;;;5093204;28;20051;-68
2022/09/26 11:44:55;;;;;;;2.05;1.00;;;15.20;99.90;;;;;;5093269;28;20020;-68
2022/09/26 11:47:42;;;;;;;2.03;1.00;;;15.30;99.90;;;;;;5093346;28;20042;-68
2022/09/26 11:50:22;;;;;;;1.67;0.95;;;15.30;99.90;;;;;;5093286;28;20024;-68
2022/09/26 11:52:53;;;;;;;2.28;0.80;;;15.30;99.90;;;;;;5093480;28;20119;-68
2022/09/26 11:55:25;;;;;;;1.27;0.77;;;15.30;99.90;;;;;;5093279;28;20028;-68
2022/09/26 11:58:32;;;;;;;1.40;0.73;;;15.30;99.90;;;;;;5075135;28;20048;-68
2022/09/26 12:01:15;;;;;;;1.55;0.80;;;15.30;99.90;;;;;;5093525;28;20024;-68
2022/09/26 12:03:59;;;;;;;1.83;0.90;;;15.30;99.90;;;;;;5093359;28;20107;-68
2022/09/26 12:07:16;;;;;;;1.98;0.90;;;15.20;99.90;;;;;;5093154;28;20031;-68
2022/09/26 12:10:02;;;;;;;2.45;0.70;;;15.20;99.90;;;;;;5050797;28;20029;-68
2022/09/26 12:12:47;;;;;;;1.50;0.90;;;15.20;99.90;;;;;;5090513;28;20036;-68
2022/09/26 12:15:35;;;;;;;2.65;0.90;;;15.30;99.90;;;;;;5093129;28;20028;-68
2022/09/26 12:18:25;;;;;;;1.85;0.90;;;15.30;99.90;;;;;;5093352;28;20017;-68
2022/09/26 12:21:27;;;;;;;1.70;0.93;;;15.40;99.90;;;;;;5092941;28;20476;-68
2022/09/26 12:24:23;;;;;;;2.40;1.05;;;15.40;99.90;;;;;;5093142;28;20047;-68
2022/09/26 12:26:57;;;;;;;2.25;1.00;;;15.20;99.90;;;;;;5092678;28;20020;-68
2022/09/26 12:29:55;;;;;;;1.83;0.98;;;15.20;99.90;;;;;;5074726;28;20032;-68
2022/09/26 12:32:42;;;;;;;11.32;3.47;;;15.30;99.90;;;;;;5093162;28;20028;-68
2022/09/26 12:35:35;;;;;;;4.47;1.42;;;15.50;99.90;;;;;;5093180;28;20105;-68
2022/09/26 12:38:19;;;;;;;4.90;1.13;;;15.70;99.90;;;;;;5069590;28;20060;-68
2022/09/26 12:41:13;;;;;;;1.67;1.00;;;15.90;99.90;;;;;;5066807;28;20029;-68
2022/09/26 12:43:54;;;;;;;2.42;0.80;;;16.10;99.90;;;;;;5072827;28;20035;-68
2022/09/26 12:46:32;;;;;;;;;;;16.20;99.90;;;;;;5073233;28;20016;-68
2022/09/26 12:49:22;;;;;;;3.25;1.00;;;16.30;99.90;;;;;;5076401;28;19904;-68
2022/09/26 12:51:51;;;;;;;3.17;0.90;;;16.40;99.90;;;;;;5056182;28;20074;-68
2022/09/26 12:54:53;;;;;;;1.25;0.80;;;16.40;99.90;;;;;;5056097;28;20075;-68
2022/09/26 12:57:23;;;;;;;1.17;0.70;;;16.40;99.90;;;;;;5055938;28;20108;-68
2022/09/26 13:00:10;;;;;;;1.45;0.70;;;16.20;99.90;;;;;;5055996;28;20073;-68
2022/09/26 13:03:13;;;;;;;1.67;0.90;;;16.10;99.30;;;;;;5056016;28;20020;-68
2022/09/26 13:05:42;;;;;;;2.08;0.73;;;16.10;99.90;;;;;;5056527;28;20100;-68
2022/09/26 13:08:46;;;;;;;2.50;0.80;;;16.00;99.90;;;;;;5056420;28;20461;-68
2022/09/26 13:11:24;;;;;;;2.50;0.90;;;15.90;99.90;;;;;;5037309;28;20207;-67
2022/09/26 13:14:18;;;;;;;1.10;0.65;;;15.70;99.50;;;;;;5055873;28;20495;-67
2022/09/26 13:17:08;;;;;;;1.58;0.73;;;15.70;99.20;;;;;;5056359;28;20028;-68
2022/09/26 13:19:53;;;;;;;1.58;0.80;;;15.60;99.20;;;;;;5059540;28;20027;-68
2022/09/26 13:23:01;;;;;;;3.47;1.95;;;15.70;97.90;;;;;;5096223;28;20548;-68
2022/09/26 13:25:51;;;;;;;4.13;2.40;;;15.70;99.20;;;;;;5095449;28;20035;-67
2022/09/26 13:28:25;;;;;;;3.08;1.00;;;15.70;98.60;;;;;;5092872;28;20066;-68
2022/09/26 13:31:00;;;;;;;1.50;0.80;;;15.60;99.50;;;;;;5076078;28;20021;-68